Crystal Wind — YJVR5 — position and weather

sailwx.info

Track history (hours):
 
Tides and Currents Weather Stations Pressure Air Temp Water Temp Dewpoint Dewpoint Depression Visibility Wind Speed Wind Dir Waves Ship Positions

Crystal Wind

Last reported at 2018-Jan-27 13:40 UTC. Time now 2018-Feb-25 15:47 UTC.
Position N 34°12' E 129°54'.
Warning: this ship's position is 29 days out of date.

Length 218 m; draft 8.1 m.

Type: Ship. MMSI: 576081000.

Date/timePositionNaut miles runAvg speedWind from/ knotsBaromVisibWave heightAir tempDewpointWater temp
2018-Jan-27 13:40N 34°12' E 129°54'411.7
2018-Jan-27 13:21N 34°15' E 129°57'511.7
2018-Jan-27 12:57N 34°19' E 130°01'511.6
2018-Jan-27 12:30N 34°22' E 130°05'611.6
2018-Jan-27 12:00N 34°26' E 130°10'611.6
2018-Jan-27 11:31N 34°30' E 130°15'611.3
2018-Jan-27 10:59N 34°35' E 130°20'611.6
2018-Jan-27 10:29N 34°39' E 130°25'811.6
2018-Jan-27 09:50N 34°44' E 130°31'  
Track history (hours):
 
Tides and Currents Weather Stations Pressure Air Temp Water Temp Dewpoint Dewpoint Depression Visibility Wind Speed Wind Dir Waves Ship Positions

Crystal Wind

Last reported at 2018-Jan-27 13:40 UTC. Time now 2018-Feb-25 15:47 UTC.
Position N 34°12' E 129°54'.
Warning: this ship's position is 29 days out of date.

Length 218 m; draft 8.1 m.

Type: Ship. MMSI: 576081000.

Date/timePositionNaut miles runAvg speedWind from/ knotsBaromVisibWave heightAir tempDewpointWater temp
2018-Jan-27 13:40N 34°12' E 129°54'411.7
2018-Jan-27 13:21N 34°15' E 129°57'511.7
2018-Jan-27 12:57N 34°19' E 130°01'511.6
2018-Jan-27 12:30N 34°22' E 130°05'611.6
2018-Jan-27 12:00N 34°26' E 130°10'611.6
2018-Jan-27 11:31N 34°30' E 130°15'611.3
2018-Jan-27 10:59N 34°35' E 130°20'611.6
2018-Jan-27 10:29N 34°39' E 130°25'811.6
2018-Jan-27 09:50N 34°44' E 130°31'  

Dump ship's entire track history